sensor_id;sensor_type;location;lat;lon;timestamp;pressure;altitude;pressure_sealevel;temperature;humidity
60019;BME280;45870;42.528;26.740;2023-02-18T00:02:05;100371.56;;;10.09;36.66
60019;BME280;45870;42.528;26.740;2023-02-18T00:04:30;100363.72;;;9.94;37.08
60019;BME280;45870;42.528;26.740;2023-02-18T00:06:56;100365.75;;;10.05;37.27
60019;BME280;45870;42.528;26.740;2023-02-18T00:09:22;100358.53;;;9.99;37.73
60019;BME280;45870;42.528;26.740;2023-02-18T00:11:48;100358.66;;;9.60;38.15
60019;BME280;45870;42.528;26.740;2023-02-18T00:14:15;100330.09;;;9.32;38.07
60019;BME280;45870;42.528;26.740;2023-02-18T00:16:41;100329.13;;;9.14;38.35
60019;BME280;45870;42.528;26.740;2023-02-18T00:19:12;100305.91;;;9.13;38.79
60019;BME280;45870;42.528;26.740;2023-02-18T00:21:38;100348.47;;;9.62;38.92
60019;BME280;45870;42.528;26.740;2023-02-18T00:24:05;100349.63;;;9.92;38.93
60019;BME280;45870;42.528;26.740;2023-02-18T00:26:32;100341.84;;;9.71;38.62
60019;BME280;45870;42.528;26.740;2023-02-18T00:28:57;100340.34;;;9.75;38.89
60019;BME280;45870;42.528;26.740;2023-02-18T00:31:26;100336.25;;;10.10;39.29
60019;BME280;45870;42.528;26.740;2023-02-18T00:33:52;100349.66;;;9.79;39.51
60019;BME280;45870;42.528;26.740;2023-02-18T00:36:19;100341.47;;;10.05;39.11
60019;BME280;45870;42.528;26.740;2023-02-18T00:38:48;100330.25;;;9.57;40.97
60019;BME280;45870;42.528;26.740;2023-02-18T00:41:15;100339.44;;;9.23;42.98
60019;BME280;45870;42.528;26.740;2023-02-18T00:43:41;100337.56;;;10.70;42.25
60019;BME280;45870;42.528;26.740;2023-02-18T00:46:07;100331.66;;;10.86;39.86
60019;BME280;45870;42.528;26.740;2023-02-18T00:48:33;100334.00;;;10.45;40.31
60019;BME280;45870;42.528;26.740;2023-02-18T00:51:00;100317.69;;;10.65;39.40
60019;BME280;45870;42.528;26.740;2023-02-18T00:53:27;100313.00;;;10.53;39.75
60019;BME280;45870;42.528;26.740;2023-02-18T00:55:54;100306.81;;;10.46;39.35
60019;BME280;45870;42.528;26.740;2023-02-18T00:58:20;100296.34;;;10.57;39.53
60019;BME280;45870;42.528;26.740;2023-02-18T01:00:46;100272.06;;;10.57;40.09
60019;BME280;45870;42.528;26.740;2023-02-18T01:03:12;100267.34;;;10.95;40.35
60019;BME280;45870;42.528;26.740;2023-02-18T01:05:38;100285.63;;;10.50;42.42
60019;BME280;45870;42.528;26.740;2023-02-18T01:08:05;100283.44;;;9.96;43.68
60019;BME280;45870;42.528;26.740;2023-02-18T01:10:31;100290.34;;;9.79;46.09
60019;BME280;45870;42.528;26.740;2023-02-18T01:12:57;100288.03;;;10.33;45.49
60019;BME280;45870;42.528;26.740;2023-02-18T01:15:23;100287.50;;;11.17;43.23
60019;BME280;45870;42.528;26.740;2023-02-18T01:17:49;100114.00;;;9.93;42.85
60019;BME280;45870;42.528;26.740;2023-02-18T01:20:17;100111.84;;;8.17;46.18
60019;BME280;45870;42.528;26.740;2023-02-18T01:22:43;100235.63;;;6.81;49.34
60019;BME280;45870;42.528;26.740;2023-02-18T01:25:10;100240.88;;;6.40;51.49
60019;BME280;45870;42.528;26.740;2023-02-18T01:27:36;100198.81;;;7.03;47.61
60019;BME280;45870;42.528;26.740;2023-02-18T01:30:06;100274.41;;;8.08;45.83
60019;BME280;45870;42.528;26.740;2023-02-18T01:32:32;100279.94;;;9.95;40.96
60019;BME280;45870;42.528;26.740;2023-02-18T01:35:00;100271.91;;;8.13;43.72
60019;BME280;45870;42.528;26.740;2023-02-18T01:37:26;100271.13;;;9.11;43.13
60019;BME280;45870;42.528;26.740;2023-02-18T01:39:52;100279.41;;;10.12;40.97
60019;BME280;45870;42.528;26.740;2023-02-18T01:42:20;100280.03;;;10.20;39.60
60019;BME280;45870;42.528;26.740;2023-02-18T01:44:47;100276.94;;;9.66;40.78
60019;BME280;45870;42.528;26.740;2023-02-18T01:47:13;100280.19;;;10.25;40.22
60019;BME280;45870;42.528;26.740;2023-02-18T01:49:39;100273.66;;;10.39;39.62
60019;BME280;45870;42.528;26.740;2023-02-18T01:52:09;100272.72;;;10.27;40.07
60019;BME280;45870;42.528;26.740;2023-02-18T01:54:40;100267.41;;;10.39;40.08
60019;BME280;45870;42.528;26.740;2023-02-18T01:57:22;100255.66;;;9.89;41.28
60019;BME280;45870;42.528;26.740;2023-02-18T01:59:54;100244.59;;;10.03;40.01
60019;BME280;45870;42.528;26.740;2023-02-18T02:02:23;100244.59;;;10.03;40.18
60019;BME280;45870;42.528;26.740;2023-02-18T02:04:51;100248.44;;;10.21;39.83
60019;BME280;45870;42.528;26.740;2023-02-18T02:07:18;100252.34;;;9.93;40.46
60019;BME280;45870;42.528;26.740;2023-02-18T02:09:46;100250.09;;;9.46;40.00
60019;BME280;45870;42.528;26.740;2023-02-18T02:15:20;100230.44;;;9.26;39.96
60019;BME280;45870;42.528;26.740;2023-02-18T02:21:01;100235.44;;;9.29;40.62
60019;BME280;45870;42.528;26.740;2023-02-18T02:35:25;100244.59;;;7.96;47.70
60019;BME280;45870;42.528;26.740;2023-02-18T02:38:08;100245.72;;;8.55;46.61
60019;BME280;45870;42.528;26.740;2023-02-18T02:40:47;100248.75;;;9.62;45.01
60019;BME280;45870;42.528;26.740;2023-02-18T02:43:43;100253.84;;;9.83;44.70
60019;BME280;45870;42.528;26.740;2023-02-18T02:48:57;100074.16;;;7.25;48.46
60019;BME280;45870;42.528;26.740;2023-02-18T02:51:29;100261.38;;;8.25;50.45
60019;BME280;45870;42.528;26.740;2023-02-18T02:54:17;100267.44;;;8.60;49.85
60019;BME280;45870;42.528;26.740;2023-02-18T02:56:43;100261.78;;;9.14;48.29
60019;BME280;45870;42.528;26.740;2023-02-18T02:59:17;100197.06;;;9.33;46.77
60019;BME280;45870;42.528;26.740;2023-02-18T03:04:40;100244.16;;;10.87;44.77
60019;BME280;45870;42.528;26.740;2023-02-18T03:07:29;100254.84;;;9.44;47.53
60019;BME280;45870;42.528;26.740;2023-02-18T03:10:30;100245.25;;;10.37;45.63
60019;BME280;45870;42.528;26.740;2023-02-18T03:13:14;100248.34;;;10.02;47.35
60019;BME280;45870;42.528;26.740;2023-02-18T03:15:58;100243.66;;;10.54;46.12
60019;BME280;45870;42.528;26.740;2023-02-18T03:18:35;100248.41;;;11.56;43.20
60019;BME280;45870;42.528;26.740;2023-02-18T03:21:26;100243.19;;;10.82;44.71
60019;BME280;45870;42.528;26.740;2023-02-18T03:23:59;100242.19;;;9.89;47.33
60019;BME280;45870;42.528;26.740;2023-02-18T03:26:27;100241.22;;;9.77;47.99
60019;BME280;45870;42.528;26.740;2023-02-18T03:28:56;100253.88;;;9.76;47.93
60019;BME280;45870;42.528;26.740;2023-02-18T03:31:25;100252.63;;;9.79;48.09
60019;BME280;45870;42.528;26.740;2023-02-18T03:34:02;100198.34;;;9.31;49.05
60019;BME280;45870;42.528;26.740;2023-02-18T03:36:31;100224.41;;;9.81;48.56
60019;BME280;45870;42.528;26.740;2023-02-18T03:39:09;100257.25;;;10.03;48.40
60019;BME280;45870;42.528;26.740;2023-02-18T03:41:37;100252.28;;;10.63;46.06
60019;BME280;45870;42.528;26.740;2023-02-18T03:44:06;100252.78;;;10.78;46.27
60019;BME280;45870;42.528;26.740;2023-02-18T03:46:33;100241.44;;;11.30;44.28
60019;BME280;45870;42.528;26.740;2023-02-18T03:48:59;100238.88;;;11.53;44.01
60019;BME280;45870;42.528;26.740;2023-02-18T03:51:24;100234.59;;;10.42;46.28
60019;BME280;45870;42.528;26.740;2023-02-18T03:53:50;100225.78;;;10.53;46.10
60019;BME280;45870;42.528;26.740;2023-02-18T03:56:16;100229.63;;;10.88;46.00
60019;BME280;45870;42.528;26.740;2023-02-18T03:58:42;100240.38;;;11.31;44.83
60019;BME280;45870;42.528;26.740;2023-02-18T04:01:08;100241.84;;;12.12;41.83
60019;BME280;45870;42.528;26.740;2023-02-18T04:03:33;100242.94;;;12.22;41.99
60019;BME280;45870;42.528;26.740;2023-02-18T04:05:59;100237.09;;;11.95;41.94
60019;BME280;45870;42.528;26.740;2023-02-18T04:08:25;100237.88;;;11.66;43.33
60019;BME280;45870;42.528;26.740;2023-02-18T04:10:50;100235.59;;;10.72;45.28
60019;BME280;45870;42.528;26.740;2023-02-18T04:13:16;100238.28;;;9.85;48.02
60019;BME280;45870;42.528;26.740;2023-02-18T04:15:43;100236.22;;;10.18;47.01
60019;BME280;45870;42.528;26.740;2023-02-18T04:18:09;100227.03;;;9.57;48.62
60019;BME280;45870;42.528;26.740;2023-02-18T04:20:35;100249.56;;;10.07;47.88
60019;BME280;45870;42.528;26.740;2023-02-18T04:23:02;100253.72;;;9.65;48.82
60019;BME280;45870;42.528;26.740;2023-02-18T04:25:28;100256.53;;;10.21;47.39
60019;BME280;45870;42.528;26.740;2023-02-18T04:27:54;100257.47;;;9.64;48.54
60019;BME280;45870;42.528;26.740;2023-02-18T04:30:20;100271.31;;;10.18;47.80
60019;BME280;45870;42.528;26.740;2023-02-18T04:32:45;100258.78;;;11.05;44.25
60019;BME280;45870;42.528;26.740;2023-02-18T04:35:11;100250.38;;;11.31;44.67
60019;BME280;45870;42.528;26.740;2023-02-18T04:37:37;100245.00;;;10.63;46.12
60019;BME280;45870;42.528;26.740;2023-02-18T04:40:03;100242.88;;;11.33;44.11
60019;BME280;45870;42.528;26.740;2023-02-18T04:42:29;100254.91;;;12.15;41.82
60019;BME280;45870;42.528;26.740;2023-02-18T04:44:55;100210.03;;;10.25;45.86
60019;BME280;45870;42.528;26.740;2023-02-18T04:47:20;100239.22;;;9.66;48.31
60019;BME280;45870;42.528;26.740;2023-02-18T04:49:46;100235.41;;;10.11;47.49
60019;BME280;45870;42.528;26.740;2023-02-18T04:52:12;100229.03;;;10.86;46.00
60019;BME280;45870;42.528;26.740;2023-02-18T04:54:37;100229.50;;;11.38;44.00
60019;BME280;45870;42.528;26.740;2023-02-18T04:57:03;100220.28;;;10.41;46.89
60019;BME280;45870;42.528;26.740;2023-02-18T04:59:29;100224.63;;;10.11;47.14
60019;BME280;45870;42.528;26.740;2023-02-18T05:01:54;100221.44;;;9.89;48.43
60019;BME280;45870;42.528;26.740;2023-02-18T05:04:20;100208.34;;;10.31;46.98
60019;BME280;45870;42.528;26.740;2023-02-18T05:06:46;100199.75;;;11.74;44.08
60019;BME280;45870;42.528;26.740;2023-02-18T05:09:12;100130.38;;;11.50;42.97
60019;BME280;45870;42.528;26.740;2023-02-18T05:11:38;100190.53;;;11.09;44.27
60019;BME280;45870;42.528;26.740;2023-02-18T05:14:04;100191.19;;;11.41;44.25
60019;BME280;45870;42.528;26.740;2023-02-18T05:16:33;100198.69;;;11.57;42.67
60019;BME280;45870;42.528;26.740;2023-02-18T05:18:59;100212.13;;;10.91;45.21
60019;BME280;45870;42.528;26.740;2023-02-18T05:21:24;100140.06;;;8.92;48.70
60019;BME280;45870;42.528;26.740;2023-02-18T05:23:50;100230.72;;;10.00;47.95
60019;BME280;45870;42.528;26.740;2023-02-18T05:26:16;100224.88;;;10.84;45.47
60019;BME280;45870;42.528;26.740;2023-02-18T05:28:41;100238.13;;;9.29;49.26
60019;BME280;45870;42.528;26.740;2023-02-18T05:31:07;100249.41;;;8.73;51.28
60019;BME280;45870;42.528;26.740;2023-02-18T05:33:32;100252.53;;;8.37;52.89
60019;BME280;45870;42.528;26.740;2023-02-18T05:35:58;100229.22;;;9.28;51.54
60019;BME280;45870;42.528;26.740;2023-02-18T05:38:24;100202.47;;;9.78;49.97
60019;BME280;45870;42.528;26.740;2023-02-18T05:40:49;100234.63;;;10.04;49.67
60019;BME280;45870;42.528;26.740;2023-02-18T05:43:15;100237.44;;;10.96;47.59
60019;BME280;45870;42.528;26.740;2023-02-18T05:45:41;100233.78;;;11.27;47.12
60019;BME280;45870;42.528;26.740;2023-02-18T05:48:06;100144.69;;;11.21;45.39
60019;BME280;45870;42.528;26.740;2023-02-18T05:50:32;100241.69;;;10.86;47.88
60019;BME280;45870;42.528;26.740;2023-02-18T05:52:58;100238.19;;;11.40;47.04
60019;BME280;45870;42.528;26.740;2023-02-18T05:55:24;100239.97;;;10.91;47.39
60019;BME280;45870;42.528;26.740;2023-02-18T05:57:50;100225.91;;;14.34;40.55
60019;BME280;45870;42.528;26.740;2023-02-18T06:00:16;100200.03;;;12.95;42.27
60019;BME280;45870;42.528;26.740;2023-02-18T06:02:42;100172.75;;;11.68;45.20
60019;BME280;45870;42.528;26.740;2023-02-18T06:05:08;100234.28;;;14.05;40.44
60019;BME280;45870;42.528;26.740;2023-02-18T06:07:34;100237.47;;;12.98;42.49
60019;BME280;45870;42.528;26.740;2023-02-18T06:10:00;100229.66;;;10.39;49.70
60019;BME280;45870;42.528;26.740;2023-02-18T06:12:26;100228.72;;;10.94;48.47
60019;BME280;45870;42.528;26.740;2023-02-18T06:14:51;100225.19;;;8.86;53.68
60019;BME280;45870;42.528;26.740;2023-02-18T06:17:17;100250.59;;;9.74;52.03
60019;BME280;45870;42.528;26.740;2023-02-18T06:19:44;100255.03;;;9.56;52.35
60019;BME280;45870;42.528;26.740;2023-02-18T06:22:10;100253.28;;;10.12;51.89
60019;BME280;45870;42.528;26.740;2023-02-18T06:24:36;100252.22;;;10.94;50.22
60019;BME280;45870;42.528;26.740;2023-02-18T06:27:03;100236.50;;;10.84;50.92
60019;BME280;45870;42.528;26.740;2023-02-18T06:29:29;100209.44;;;11.27;48.68
60019;BME280;45870;42.528;26.740;2023-02-18T06:31:56;100238.56;;;11.07;49.77
60019;BME280;45870;42.528;26.740;2023-02-18T06:34:22;100242.19;;;11.74;48.98
60019;BME280;45870;42.528;26.740;2023-02-18T06:36:48;100229.69;;;11.54;48.46
60019;BME280;45870;42.528;26.740;2023-02-18T06:39:14;100214.53;;;12.01;47.52
60019;BME280;45870;42.528;26.740;2023-02-18T06:41:40;100212.84;;;12.30;46.53
60019;BME280;45870;42.528;26.740;2023-02-18T06:44:06;100221.63;;;11.18;49.33
60019;BME280;45870;42.528;26.740;2023-02-18T06:46:31;100228.91;;;11.36;49.73
60019;BME280;45870;42.528;26.740;2023-02-18T06:48:57;100211.88;;;11.35;50.06
60019;BME280;45870;42.528;26.740;2023-02-18T06:51:23;100228.34;;;10.91;51.88
60019;BME280;45870;42.528;26.740;2023-02-18T06:53:48;100228.06;;;11.35;50.79
60019;BME280;45870;42.528;26.740;2023-02-18T06:56:15;100148.13;;;11.28;49.25
60019;BME280;45870;42.528;26.740;2023-02-18T06:58:41;100172.75;;;11.20;49.71
60019;BME280;45870;42.528;26.740;2023-02-18T07:01:07;100224.69;;;10.61;51.96
60019;BME280;45870;42.528;26.740;2023-02-18T07:03:32;100232.78;;;11.58;50.14
60019;BME280;45870;42.528;26.740;2023-02-18T07:05:58;100228.88;;;10.99;51.29
60019;BME280;45870;42.528;26.740;2023-02-18T07:08:24;100234.06;;;11.56;50.34
60019;BME280;45870;42.528;26.740;2023-02-18T07:10:50;100022.84;;;10.26;49.56
60019;BME280;45870;42.528;26.740;2023-02-18T07:13:16;100226.19;;;12.02;48.82
60019;BME280;45870;42.528;26.740;2023-02-18T07:15:41;100224.38;;;12.37;47.88
60019;BME280;45870;42.528;26.740;2023-02-18T07:18:07;100218.28;;;12.53;47.84
60019;BME280;45870;42.528;26.740;2023-02-18T07:20:33;100221.94;;;12.47;47.36
60019;BME280;45870;42.528;26.740;2023-02-18T07:22:59;100215.19;;;12.27;47.64
60019;BME280;45870;42.528;26.740;2023-02-18T07:25:25;100210.41;;;12.52;47.66
60019;BME280;45870;42.528;26.740;2023-02-18T07:27:51;100214.38;;;12.49;47.67
60019;BME280;45870;42.528;26.740;2023-02-18T07:30:18;100202.38;;;12.34;47.85
60019;BME280;45870;42.528;26.740;2023-02-18T07:32:45;100117.63;;;12.68;46.72
60019;BME280;45870;42.528;26.740;2023-02-18T07:35:13;100197.78;;;13.67;45.11
60019;BME280;45870;42.528;26.740;2023-02-18T07:37:42;100214.63;;;13.06;46.43
60019;BME280;45870;42.528;26.740;2023-02-18T07:40:09;100216.19;;;12.14;48.80
60019;BME280;45870;42.528;26.740;2023-02-18T07:42:35;100212.50;;;12.38;48.67
60019;BME280;45870;42.528;26.740;2023-02-18T07:45:00;100206.50;;;12.48;47.92
60019;BME280;45870;42.528;26.740;2023-02-18T07:47:26;100216.13;;;12.21;49.03
60019;BME280;45870;42.528;26.740;2023-02-18T07:49:52;100223.00;;;12.58;47.20
60019;BME280;45870;42.528;26.740;2023-02-18T07:52:17;100208.75;;;12.51;47.83
60019;BME280;45870;42.528;26.740;2023-02-18T07:54:43;100204.50;;;13.13;46.95
60019;BME280;45870;42.528;26.740;2023-02-18T07:57:08;100197.59;;;12.59;48.33
60019;BME280;45870;42.528;26.740;2023-02-18T07:59:34;100199.94;;;12.90;46.71
60019;BME280;45870;42.528;26.740;2023-02-18T08:02:00;100208.38;;;13.69;45.22
60019;BME280;45870;42.528;26.740;2023-02-18T08:04:26;100211.94;;;13.29;46.01
60019;BME280;45870;42.528;26.740;2023-02-18T08:06:51;100214.66;;;13.18;46.47
60019;BME280;45870;42.528;26.740;2023-02-18T08:09:17;100218.50;;;12.98;46.26
60019;BME280;45870;42.528;26.740;2023-02-18T08:11:43;100124.75;;;13.09;45.03
60019;BME280;45870;42.528;26.740;2023-02-18T08:14:09;100194.16;;;12.64;46.77
60019;BME280;45870;42.528;26.740;2023-02-18T08:16:35;100188.50;;;12.65;47.18
60019;BME280;45870;42.528;26.740;2023-02-18T08:19:01;100182.13;;;12.36;47.85
60019;BME280;45870;42.528;26.740;2023-02-18T08:21:28;100175.56;;;12.44;48.22
60019;BME280;45870;42.528;26.740;2023-02-18T08:23:54;100170.47;;;12.71;47.19
60019;BME280;45870;42.528;26.740;2023-02-18T08:26:20;100178.34;;;12.95;46.44
60019;BME280;45870;42.528;26.740;2023-02-18T08:28:46;100190.03;;;12.84;46.22
60019;BME280;45870;42.528;26.740;2023-02-18T08:31:18;100175.28;;;13.03;45.88
60019;BME280;45870;42.528;26.740;2023-02-18T08:33:44;100182.94;;;13.58;44.77
60019;BME280;45870;42.528;26.740;2023-02-18T08:36:10;100118.09;;;12.42;45.92
60019;BME280;45870;42.528;26.740;2023-02-18T08:38:36;100167.16;;;13.55;44.72
60019;BME280;45870;42.528;26.740;2023-02-18T08:41:04;100175.47;;;13.93;43.64
60019;BME280;45870;42.528;26.740;2023-02-18T08:43:30;100172.44;;;13.62;43.35
60019;BME280;45870;42.528;26.740;2023-02-18T08:45:57;100172.97;;;14.20;42.70
60019;BME280;45870;42.528;26.740;2023-02-18T08:48:23;100174.22;;;14.63;41.62
60019;BME280;45870;42.528;26.740;2023-02-18T08:50:48;100174.31;;;14.51;41.63
60019;BME280;45870;42.528;26.740;2023-02-18T08:53:15;100171.63;;;14.23;41.57
60019;BME280;45870;42.528;26.740;2023-02-18T08:55:41;100166.09;;;14.46;41.29
60019;BME280;45870;42.528;26.740;2023-02-18T08:58:07;100171.31;;;14.19;42.01
60019;BME280;45870;42.528;26.740;2023-02-18T09:00:33;100167.59;;;15.35;39.97
60019;BME280;45870;42.528;26.740;2023-02-18T09:02:59;100157.66;;;14.31;41.71
60019;BME280;45870;42.528;26.740;2023-02-18T09:05:25;100159.19;;;14.38;41.02
60019;BME280;45870;42.528;26.740;2023-02-18T09:07:50;100175.72;;;14.92;40.01
60019;BME280;45870;42.528;26.740;2023-02-18T09:10:16;100191.34;;;14.46;40.87
60019;BME280;45870;42.528;26.740;2023-02-18T09:12:42;100177.78;;;14.85;40.01
60019;BME280;45870;42.528;26.740;2023-02-18T09:15:07;100189.38;;;13.97;41.56
60019;BME280;45870;42.528;26.740;2023-02-18T09:17:33;100185.56;;;13.81;41.16
60019;BME280;45870;42.528;26.740;2023-02-18T09:19:59;100173.88;;;13.81;40.93
60019;BME280;45870;42.528;26.740;2023-02-18T09:22:25;100177.66;;;15.57;37.77
60019;BME280;45870;42.528;26.740;2023-02-18T09:24:51;100174.94;;;15.78;37.11
60019;BME280;45870;42.528;26.740;2023-02-18T09:27:16;100175.00;;;16.15;36.24
60019;BME280;45870;42.528;26.740;2023-02-18T09:29:42;100169.59;;;15.45;38.25
60019;BME280;45870;42.528;26.740;2023-02-18T09:32:08;100178.72;;;15.77;37.69
60019;BME280;45870;42.528;26.740;2023-02-18T09:34:35;100170.63;;;15.82;36.84
60019;BME280;45870;42.528;26.740;2023-02-18T09:37:01;100158.81;;;15.28;38.02
60019;BME280;45870;42.528;26.740;2023-02-18T09:39:27;100163.16;;;17.05;36.05
60019;BME280;45870;42.528;26.740;2023-02-18T09:42:03;100146.03;;;19.47;31.82
60019;BME280;45870;42.528;26.740;2023-02-18T09:44:37;100151.47;;;18.02;34.04
60019;BME280;45870;42.528;26.740;2023-02-18T09:49:40;100124.34;;;16.88;35.77
60019;BME280;45870;42.528;26.740;2023-02-18T09:52:26;100127.69;;;17.87;35.08
60019;BME280;45870;42.528;26.740;2023-02-18T09:54:55;100082.56;;;17.44;34.95
60019;BME280;45870;42.528;26.740;2023-02-18T09:57:43;100106.94;;;17.81;34.78
60019;BME280;45870;42.528;26.740;2023-02-18T10:00:34;100109.81;;;17.34;34.85
60019;BME280;45870;42.528;26.740;2023-02-18T10:03:12;100106.09;;;17.66;34.78
60019;BME280;45870;42.528;26.740;2023-02-18T10:05:44;100103.00;;;17.42;36.06
60019;BME280;45870;42.528;26.740;2023-02-18T10:08:20;100093.56;;;18.10;34.82
60019;BME280;45870;42.528;26.740;2023-02-18T10:10:47;100089.44;;;17.77;34.64
60019;BME280;45870;42.528;26.740;2023-02-18T10:13:17;100085.78;;;17.26;34.05
60019;BME280;45870;42.528;26.740;2023-02-18T10:15:44;100014.81;;;16.49;34.56
60019;BME280;45870;42.528;26.740;2023-02-18T10:18:32;100061.09;;;16.96;33.95
60019;BME280;45870;42.528;26.740;2023-02-18T10:21:13;100071.09;;;17.53;32.50
60019;BME280;45870;42.528;26.740;2023-02-18T10:23:42;100057.72;;;18.52;31.49
60019;BME280;45870;42.528;26.740;2023-02-18T10:26:14;100024.94;;;17.26;32.27
60019;BME280;45870;42.528;26.740;2023-02-18T10:28:41;99875.78;;;16.29;33.05
60019;BME280;45870;42.528;26.740;2023-02-18T10:31:08;100006.28;;;16.92;32.06
60019;BME280;45870;42.528;26.740;2023-02-18T10:36:43;100058.63;;;16.84;32.97
60019;BME280;45870;42.528;26.740;2023-02-18T10:50:34;100035.06;;;16.63;33.10
60019;BME280;45870;42.528;26.740;2023-02-18T10:53:09;100044.38;;;17.70;31.43
60019;BME280;45870;42.528;26.740;2023-02-18T10:55:42;100038.84;;;17.29;32.08
60019;BME280;45870;42.528;26.740;2023-02-18T11:00:49;100034.84;;;16.75;33.75
60019;BME280;45870;42.528;26.740;2023-02-18T11:03:18;100020.56;;;17.25;32.65
60019;BME280;45870;42.528;26.740;2023-02-18T11:05:46;100038.84;;;17.29;33.45
60019;BME280;45870;42.528;26.740;2023-02-18T11:08:23;99995.72;;;17.06;33.48
60019;BME280;45870;42.528;26.740;2023-02-18T11:10:50;100032.69;;;16.82;34.19
60019;BME280;45870;42.528;26.740;2023-02-18T11:13:26;100029.59;;;16.58;34.87
60019;BME280;45870;42.528;26.740;2023-02-18T11:16:00;100042.28;;;16.42;35.23
60019;BME280;45870;42.528;26.740;2023-02-18T11:18:35;100041.66;;;16.30;35.45
60019;BME280;45870;42.528;26.740;2023-02-18T11:21:05;99996.56;;;17.27;33.85
60019;BME280;45870;42.528;26.740;2023-02-18T11:23:45;100024.59;;;17.02;34.08
60019;BME280;45870;42.528;26.740;2023-02-18T11:26:12;100018.16;;;17.84;33.03
60019;BME280;45870;42.528;26.740;2023-02-18T11:28:44;100007.34;;;19.27;30.79
60019;BME280;45870;42.528;26.740;2023-02-18T11:31:20;100010.94;;;19.18;30.88
60019;BME280;45870;42.528;26.740;2023-02-18T11:33:50;100004.34;;;18.75;31.57
60019;BME280;45870;42.528;26.740;2023-02-18T11:36:22;99988.56;;;18.46;32.14
60019;BME280;45870;42.528;26.740;2023-02-18T11:39:00;99981.66;;;18.69;31.25
60019;BME280;45870;42.528;26.740;2023-02-18T11:41:41;99974.75;;;18.08;32.10
60019;BME280;45870;42.528;26.740;2023-02-18T11:44:33;99972.25;;;18.90;30.74
60019;BME280;45870;42.528;26.740;2023-02-18T11:47:08;99884.88;;;18.06;31.73
60019;BME280;45870;42.528;26.740;2023-02-18T11:49:58;99864.19;;;18.44;31.17
60019;BME280;45870;42.528;26.740;2023-02-18T11:52:27;99968.75;;;18.85;31.52
60019;BME280;45870;42.528;26.740;2023-02-18T11:57:27;99771.25;;;17.11;32.45
60019;BME280;45870;42.528;26.740;2023-02-18T11:59:53;99951.16;;;19.45;31.10
60019;BME280;45870;42.528;26.740;2023-02-18T12:05:13;99963.84;;;17.67;33.11
60019;BME280;45870;42.528;26.740;2023-02-18T12:10:38;99908.88;;;18.09;32.18
60019;BME280;45870;42.528;26.740;2023-02-18T12:13:05;99950.72;;;18.00;32.01
60019;BME280;45870;42.528;26.740;2023-02-18T12:29:41;99947.22;;;18.68;31.93
60019;BME280;45870;42.528;26.740;2023-02-18T12:32:22;99923.03;;;18.31;31.76
60019;BME280;45870;42.528;26.740;2023-02-18T12:34:56;99934.56;;;18.18;32.02
60019;BME280;45870;42.528;26.740;2023-02-18T12:38:08;99935.25;;;18.59;31.24
60019;BME280;45870;42.528;26.740;2023-02-18T12:43:40;99932.28;;;20.01;29.01
60019;BME280;45870;42.528;26.740;2023-02-18T12:46:26;99933.47;;;19.61;28.70
60019;BME280;45870;42.528;26.740;2023-02-18T12:49:08;99936.44;;;20.22;27.95
60019;BME280;45870;42.528;26.740;2023-02-18T12:51:44;99937.72;;;18.45;30.73
60019;BME280;45870;42.528;26.740;2023-02-18T12:57:35;99931.31;;;17.91;30.95
60019;BME280;45870;42.528;26.740;2023-02-18T13:00:29;99920.06;;;18.13;29.85
60019;BME280;45870;42.528;26.740;2023-02-18T13:05:52;99910.13;;;18.47;29.20
60019;BME280;45870;42.528;26.740;2023-02-18T13:08:45;99912.47;;;17.94;30.19
60019;BME280;45870;42.528;26.740;2023-02-18T13:14:09;99908.69;;;17.35;31.15
60019;BME280;45870;42.528;26.740;2023-02-18T13:16:38;99920.34;;;18.21;30.15
60019;BME280;45870;42.528;26.740;2023-02-18T13:19:44;99912.66;;;18.23;29.76
60019;BME280;45870;42.528;26.740;2023-02-18T13:22:14;99910.09;;;19.01;29.25
60019;BME280;45870;42.528;26.740;2023-02-18T13:24:45;99909.91;;;19.31;28.46
60019;BME280;45870;42.528;26.740;2023-02-18T13:38:48;99877.59;;;23.09;23.75
60019;BME280;45870;42.528;26.740;2023-02-18T13:41:17;99877.72;;;23.26;23.63
60019;BME280;45870;42.528;26.740;2023-02-18T13:43:44;99861.94;;;23.40;23.47
60019;BME280;45870;42.528;26.740;2023-02-18T13:46:14;99873.31;;;23.70;23.07
60019;BME280;45870;42.528;26.740;2023-02-18T13:51:13;99861.09;;;23.54;23.27
60019;BME280;45870;42.528;26.740;2023-02-18T13:53:42;99804.72;;;23.37;22.99
60019;BME280;45870;42.528;26.740;2023-02-18T13:56:22;99842.69;;;23.18;23.25
60019;BME280;45870;42.528;26.740;2023-02-18T13:58:54;99865.78;;;23.31;23.54
60019;BME280;45870;42.528;26.740;2023-02-18T14:01:45;99860.16;;;23.14;23.86
60019;BME280;45870;42.528;26.740;2023-02-18T14:09:50;99849.19;;;18.46;30.73
60019;BME280;45870;42.528;26.740;2023-02-18T14:12:22;99843.78;;;18.80;30.38
60019;BME280;45870;42.528;26.740;2023-02-18T14:14:50;99638.28;;;18.34;28.86
60019;BME280;45870;42.528;26.740;2023-02-18T14:22:31;99835.66;;;20.14;27.26
60019;BME280;45870;42.528;26.740;2023-02-18T14:25:16;99807.72;;;21.24;25.70
60019;BME280;45870;42.528;26.740;2023-02-18T14:27:50;99825.09;;;21.79;25.19
60019;BME280;45870;42.528;26.740;2023-02-18T14:30:24;99821.22;;;21.80;24.96
60019;BME280;45870;42.528;26.740;2023-02-18T14:32:59;99829.31;;;21.45;25.09
60019;BME280;45870;42.528;26.740;2023-02-18T14:38:13;99823.22;;;20.46;27.20
60019;BME280;45870;42.528;26.740;2023-02-18T14:41:17;99823.13;;;19.61;28.24